createdAt,value
2018-12-08T00:01:28.534Z,1.63
2018-12-08T00:06:31.011Z,2.70
2018-12-08T00:11:33.529Z,1.37
2018-12-08T00:16:36.026Z,1.87
2018-12-08T00:21:38.498Z,1.80
2018-12-08T00:26:40.984Z,1.67
2018-12-08T00:31:44.721Z,2.73
2018-12-08T00:36:47.405Z,2.07
2018-12-08T00:41:49.934Z,1.67
2018-12-08T00:46:52.426Z,1.50
2018-12-08T00:51:55.522Z,1.70
2018-12-08T00:56:58.065Z,1.47
2018-12-08T01:02:00.558Z,1.47
2018-12-08T01:07:03.038Z,1.57
2018-12-08T01:12:05.563Z,1.87
2018-12-08T01:17:08.077Z,2.03
2018-12-08T01:22:10.597Z,1.53
2018-12-08T01:27:13.090Z,1.67
2018-12-08T01:32:16.417Z,1.40
2018-12-08T01:37:18.917Z,1.20
2018-12-08T01:42:21.385Z,2.87
2018-12-08T01:47:23.852Z,1.33
2018-12-08T01:52:26.374Z,1.90
2018-12-08T01:57:28.895Z,1.20
2018-12-08T02:02:31.362Z,1.50
2018-12-08T02:07:33.881Z,1.43
2018-12-08T02:12:36.377Z,1.10
2018-12-08T02:17:38.873Z,1.80
2018-12-08T02:22:41.353Z,1.77
2018-12-08T02:27:43.827Z,1.07
2018-12-08T02:32:46.290Z,1.50
2018-12-08T02:37:48.759Z,1.20
2018-12-08T02:42:52.046Z,1.33
2018-12-08T02:47:54.530Z,0.90
2018-12-08T02:52:57.470Z,0.90
2018-12-08T02:57:59.968Z,1.47
2018-12-08T03:03:02.474Z,1.33
2018-12-08T03:08:05.073Z,1.30
2018-12-08T03:13:07.549Z,1.37
2018-12-08T03:18:10.122Z,0.70
2018-12-08T03:23:12.686Z,0.73
2018-12-08T03:28:15.157Z,2.47
2018-12-08T03:33:17.622Z,0.70
2018-12-08T03:38:20.270Z,1.60
2018-12-08T03:43:22.921Z,0.87
2018-12-08T03:48:25.418Z,0.87
2018-12-08T03:53:28.648Z,1.27
2018-12-08T03:58:31.171Z,0.70
2018-12-08T04:03:33.645Z,0.77
2018-12-08T04:08:36.163Z,1.30
2018-12-08T04:13:38.639Z,1.23
2018-12-08T04:18:41.141Z,1.77
2018-12-08T04:23:43.630Z,0.70
2018-12-08T04:28:46.133Z,0.87
2018-12-08T04:33:49.395Z,0.67
2018-12-08T04:38:51.868Z,1.43
2018-12-08T04:43:54.434Z,0.90
2018-12-08T04:48:56.910Z,1.00
2018-12-08T04:53:59.389Z,1.00
2018-12-08T04:59:01.886Z,1.23
2018-12-08T05:04:04.415Z,0.97
2018-12-08T05:09:07.122Z,0.90
2018-12-08T05:14:09.613Z,0.60
2018-12-08T05:19:12.081Z,1.13
2018-12-08T05:24:15.121Z,0.93
2018-12-08T05:29:17.617Z,0.70
2018-12-08T05:34:20.087Z,0.97
2018-12-08T05:39:22.613Z,0.87
2018-12-08T05:44:25.079Z,1.30
2018-12-08T05:49:27.922Z,1.00
2018-12-08T05:54:30.614Z,0.80
2018-12-08T05:59:33.637Z,0.70
2018-12-08T06:04:36.585Z,0.77
2018-12-08T06:09:39.090Z,0.97
2018-12-08T06:14:41.588Z,0.90
2018-12-08T06:19:44.094Z,1.20
2018-12-08T06:24:46.591Z,0.80
2018-12-08T06:29:49.347Z,1.47
2018-12-08T06:34:51.985Z,0.60
2018-12-08T06:39:54.498Z,1.20
2018-12-08T06:44:57.129Z,0.57
2018-12-08T06:49:59.701Z,0.80
2018-12-08T06:55:02.322Z,0.93
2018-12-08T07:00:06.089Z,0.50
2018-12-08T07:05:08.613Z,0.70
2018-12-08T07:10:11.082Z,0.97
2018-12-08T07:15:13.574Z,0.73
2018-12-08T07:20:16.069Z,1.00
2018-12-08T07:25:18.609Z,0.50
2018-12-08T07:30:21.134Z,2.20
2018-12-08T07:35:24.531Z,0.97
2018-12-08T07:40:27.050Z,1.13
2018-12-08T07:45:29.534Z,1.50
2018-12-08T07:50:32.020Z,1.07
2018-12-08T07:55:34.514Z,1.80
2018-12-08T08:00:37.001Z,3.80
2018-12-08T08:05:39.502Z,1.17
2018-12-08T08:10:42.000Z,5.90
2018-12-08T08:15:44.465Z,1.90
2018-12-08T08:20:46.933Z,1.03
2018-12-08T08:25:49.521Z,2.47
2018-12-08T08:30:52.017Z,3.17
2018-12-08T08:35:54.481Z,1.03
2018-12-08T08:40:57.190Z,2.53
2018-12-08T08:45:59.902Z,2.80
2018-12-08T08:51:02.437Z,2.30
2018-12-08T08:56:04.990Z,2.67
2018-12-08T09:01:07.454Z,3.30
2018-12-08T09:06:09.955Z,5.80
2018-12-08T09:11:12.461Z,3.93
2018-12-08T09:16:14.953Z,2.70
2018-12-08T09:21:17.422Z,3.77
2018-12-08T09:26:20.602Z,3.23
2018-12-08T09:31:23.099Z,4.27
2018-12-08T09:36:25.674Z,3.27
2018-12-08T09:41:28.280Z,3.60
2018-12-08T09:46:30.754Z,1.37
2018-12-08T09:51:34.062Z,2.53
2018-12-08T09:56:37.014Z,3.10
2018-12-08T10:01:39.541Z,7.93
2018-12-08T10:06:42.173Z,2.60
2018-12-08T10:11:44.704Z,2.43
2018-12-08T10:16:47.545Z,1.63
2018-12-08T10:21:50.157Z,3.37
2018-12-08T10:26:52.809Z,1.00
2018-12-08T10:31:55.297Z,2.40
2018-12-08T10:36:57.962Z,5.53
2018-12-08T10:42:00.557Z,3.13
2018-12-08T10:47:03.130Z,3.27
2018-12-08T10:52:05.783Z,2.77
2018-12-08T10:57:08.286Z,10.40
2018-12-08T11:02:16.409Z,8.67
2018-12-08T11:07:18.901Z,8.57
2018-12-08T11:12:21.674Z,4.90
2018-12-08T11:17:24.281Z,8.03
2018-12-08T11:22:28.482Z,8.50
2018-12-08T11:27:30.980Z,7.13
2018-12-08T11:32:33.473Z,8.03
2018-12-08T11:37:36.298Z,6.37
2018-12-08T11:42:39.245Z,4.50
2018-12-08T11:47:41.966Z,5.97
2018-12-08T11:52:44.681Z,3.83
2018-12-08T11:57:47.238Z,7.70
2018-12-08T12:02:49.734Z,5.53
2018-12-08T12:07:52.206Z,4.50
2018-12-08T12:12:54.702Z,4.07
2018-12-08T12:17:57.468Z,4.93
2018-12-08T12:23:00.078Z,2.67
2018-12-08T12:28:02.793Z,2.83
2018-12-08T12:33:05.376Z,2.20
2018-12-08T12:38:08.002Z,3.87
2018-12-08T12:43:10.633Z,2.30
2018-12-08T12:48:13.129Z,2.57
2018-12-08T12:53:15.801Z,1.97
2018-12-08T12:58:18.321Z,2.67
2018-12-08T13:03:20.793Z,1.37
2018-12-08T13:08:23.269Z,2.07
2018-12-08T13:13:25.765Z,1.73
2018-12-08T13:18:28.387Z,1.53
2018-12-08T13:23:30.986Z,1.83
2018-12-08T13:28:34.294Z,1.00
2018-12-08T13:33:36.886Z,1.10
2018-12-08T13:38:39.462Z,1.40
2018-12-08T13:43:45.785Z,1.13
2018-12-08T13:48:48.330Z,1.87
2018-12-08T13:53:50.846Z,1.70
2018-12-08T13:58:54.875Z,1.07
2018-12-08T14:03:57.573Z,0.97
2018-12-08T14:09:00.181Z,1.40
2018-12-08T14:14:02.785Z,1.33
2018-12-08T14:19:05.353Z,1.57
2018-12-08T14:24:07.864Z,0.90
2018-12-08T14:29:10.355Z,1.30
2018-12-08T14:34:13.830Z,1.73
2018-12-08T14:39:16.345Z,1.53
2018-12-08T14:44:18.859Z,3.70
2018-12-08T14:49:21.429Z,0.80
2018-12-08T14:54:23.926Z,1.40
2018-12-08T14:59:27.174Z,1.20
2018-12-08T15:04:29.649Z,3.50
2018-12-08T15:09:32.133Z,1.10
2018-12-08T15:14:34.837Z,0.50
2018-12-08T15:19:37.360Z,0.77
2018-12-08T15:24:39.977Z,1.00
2018-12-08T15:29:42.877Z,1.60
2018-12-08T15:34:45.349Z,2.50
2018-12-08T15:39:48.641Z,1.60
2018-12-08T15:44:51.195Z,0.30
2018-12-08T15:49:53.686Z,0.90
2018-12-08T15:54:56.256Z,1.13
2018-12-08T15:59:58.917Z,1.00
2018-12-08T16:05:01.441Z,1.03
2018-12-08T16:10:08.466Z,1.00
2018-12-08T16:15:11.005Z,0.93
2018-12-08T16:20:13.757Z,1.17
2018-12-08T16:25:16.354Z,0.63
2018-12-08T16:30:18.950Z,0.82
2018-12-08T16:35:21.438Z,1.43
2018-12-08T16:40:24.034Z,2.03
2018-12-08T16:45:27.189Z,1.53
2018-12-08T16:50:29.837Z,3.33
2018-12-08T16:55:32.345Z,2.20
2018-12-08T17:00:34.921Z,1.20
2018-12-08T17:05:37.449Z,3.90
2018-12-08T17:10:40.007Z,1.17
2018-12-08T17:15:42.486Z,0.80
2018-12-08T17:20:45.004Z,0.70
2018-12-08T17:25:47.686Z,1.43
2018-12-08T17:30:50.281Z,0.67
2018-12-08T17:35:52.877Z,0.70
2018-12-08T17:40:55.477Z,0.60
2018-12-08T17:45:58.013Z,0.87
2018-12-08T17:51:00.768Z,0.33
2018-12-08T17:56:03.462Z,0.63
2018-12-08T18:01:06.022Z,1.53
2018-12-08T18:06:08.537Z,1.17
2018-12-08T18:11:11.049Z,0.70
2018-12-08T18:16:13.577Z,0.60
2018-12-08T18:21:16.213Z,0.97
2018-12-08T18:26:18.920Z,0.87
2018-12-08T18:31:21.405Z,0.63
2018-12-08T18:36:24.014Z,2.10
2018-12-08T18:41:26.590Z,1.20
2018-12-08T18:46:29.089Z,0.60
2018-12-08T18:51:31.687Z,1.10
2018-12-08T18:56:34.177Z,0.93
2018-12-08T19:01:36.670Z,0.70
2018-12-08T19:06:39.228Z,0.50
2018-12-08T19:11:41.753Z,0.70
2018-12-08T19:16:44.349Z,0.53
2018-12-08T19:21:46.874Z,0.50
2018-12-08T19:26:49.438Z,0.67
2018-12-08T19:31:52.141Z,0.97
2018-12-08T19:36:55.779Z,0.40
2018-12-08T19:41:59.108Z,0.63
2018-12-08T19:47:01.618Z,1.53
2018-12-08T19:52:04.253Z,0.77
2018-12-08T19:57:06.748Z,0.80
2018-12-08T20:02:09.255Z,1.33
2018-12-08T20:07:11.826Z,0.50
2018-12-08T20:12:14.317Z,1.47
2018-12-08T20:17:16.808Z,1.53
2018-12-08T20:22:19.370Z,0.90
2018-12-08T20:27:21.858Z,0.83
2018-12-08T20:32:24.392Z,0.80
2018-12-08T20:37:26.877Z,0.80
2018-12-08T20:42:29.473Z,0.93
2018-12-08T20:47:32.095Z,1.57
2018-12-08T20:52:34.765Z,0.70
2018-12-08T20:57:37.257Z,0.57
2018-12-08T21:02:39.738Z,0.70
2018-12-08T21:07:42.341Z,0.40
2018-12-08T21:12:44.833Z,1.17
2018-12-08T21:17:47.341Z,0.40
2018-12-08T21:22:49.861Z,1.37
2018-12-08T21:27:52.413Z,1.10
2018-12-08T21:32:54.902Z,0.50
2018-12-08T21:37:57.410Z,0.70
2018-12-08T21:42:59.993Z,1.13
2018-12-08T21:48:02.482Z,0.60
2018-12-08T21:53:05.077Z,0.70
2018-12-08T21:58:07.546Z,1.60
2018-12-08T22:03:10.167Z,0.90
2018-12-08T22:08:12.655Z,0.40
2018-12-08T22:13:15.137Z,0.40
2018-12-08T22:18:17.638Z,1.23
2018-12-08T22:23:20.127Z,0.63
2018-12-08T22:28:22.623Z,0.80
2018-12-08T22:33:25.212Z,1.87
2018-12-08T22:38:28.673Z,0.63
2018-12-08T22:43:31.529Z,0.53
2018-12-08T22:48:35.044Z,0.50
2018-12-08T22:53:37.529Z,2.10
2018-12-08T22:58:40.129Z,0.70
2018-12-08T23:03:42.638Z,0.30
2018-12-08T23:08:45.223Z,0.50
2018-12-08T23:13:47.705Z,0.87
2018-12-08T23:18:50.405Z,2.53
2018-12-08T23:23:52.922Z,1.13
2018-12-08T23:28:55.401Z,1.03
2018-12-08T23:33:57.981Z,2.20
2018-12-08T23:39:00.530Z,0.87
2018-12-08T23:44:03.128Z,0.30
2018-12-08T23:49:11.198Z,0.30
2018-12-08T23:54:10.305Z,0.40
2018-12-08T23:59:12.797Z,0.67
